Atlantic - Newfoundland: Past 24 Hour Conditions

 

Stephenville Airport

04:30 PM NST 23 November 2014
This table is a summary of hourly weather conditions for the past 24 hours.
Date / Time
(NST)
Wind(knots) Conditions Visibility(km) Pressure(kPa) Air tempC) Relative humidity(%) Dew pointC) Wind Chill
23 November 2014
16:30 WNW 17 gust 29 Mostly Cloudy 24 101.1 1 71 -3 *
15:30 WNW 16 gust 24 Mostly Cloudy 24 100.9 2 80 -1 *
14:30 W 21 gust 31 Mostly Cloudy 24 100.8 3 74 -1 *
13:30 W 22 gust 28 Mostly Cloudy 24 100.7 3 75 -1 *
12:30 W 22 Mostly Cloudy 24 100.7 3 79 -1 *
11:30 W 22 gust 30 Mostly Cloudy 24 100.6 3 79 -1 *
10:30 W 23 gust 30 Mostly Cloudy 24 100.6 3 79 -1 *
9:30 W 22 Light Snowshower 19 100.6 2 79 -1 *
8:30 W 23 gust 29 Light Snowshower 19 100.6 2 80 -1 *
7:30 W 21 Mostly Cloudy 24 100.5 2 77 -2 *
6:30 W 19 gust 25 Light Snowshower 24 100.5 1 77 -2 *
5:30 W 15 gust 22 Mostly Cloudy 24 100.5 1 76 -3 *
4:30 W 18 gust 27 Drifting Snow 19 100.4 1 76 -3 *
3:30 W 18 gust 25 Drifting Snow 13 100.4 0 81 -3 *
2:30 W 31 gust 39 Light Snow 5 100.4 1 79 -3 *
1:30 WSW 30 gust 37 Light Snow 3 100.4 1 77 -3 *
0:30 W 27 gust 35 Light Snow 3 100.4 0 87 -2 -8
22 November 2014
23:30 WSW 28 gust 39 Light Snow 2 100.5 0 87 -2 -9
22:30 WSW 25 gust 37 Light Snow 5 100.5 -1 82 -3 -9
21:30 WNW 15 gust 23 Light Snow 5 100.6 -2 83 -5 -9
20:30 W 20 gust 28 Light Snow 5 100.7 -3 81 -5 -11
19:30 W 19 gust 27 Light Snow 10 100.8 -3 76 -6 -10
18:30 W 19 gust 26 Light Snow 19 100.8 -3 68 -8 -11
17:30 W 22 gust 34 Light Snow 13 100.8 -3 65 -8 -11
16:30 W 21 gust 38 Light Snow 3 100.8 -3 84 -6 -12
 
Map of Atlantic - Newfoundland marine weather areas Southwestern Grand Banks - 44138 Banquereau - 44139 Tail of the Bank - 44140 Nickerson Bank - 44251 Northeast Burgeo Bank - 44255 Blanc-Sablon Airport Cap Whittle Chevery Natashquan Airport Heath Point Miscou Island Grand Étang Ingonish Beach North Mountain St.Paul Island J.A. Douglas McCurdy Sydney Airport Charlottetown Airport East Point North Cape Argentia Bonavista Burgeo Cape Race Corner Brook Daniel's Harbour Englee Ferolle Point La Scie Port aux Basques Rocky Harbour Sagona Island St. Anthony Airport St. John's Int'l Airport St. Lawrence Stephenville Airport Twillingate Winterland Wreckhouse Cartwright Airport Mary's Harbour Grates Cove Pool's Island Marticot Island Long Pond Îles de la Madeleine Airport
Legend: buoyBuoy land stationLand Station